sensor_id;sensor_type;location;lat;lon;timestamp;pressure;altitude;pressure_sealevel;temperature;humidity
9281;BME280;4679;47.966;7.958;2024-03-29T07:53:54;95393.91;;;11.37;57.66
9281;BME280;4679;47.966;7.958;2024-03-29T07:55:55;95394.50;;;11.34;58.18
9281;BME280;4679;47.966;7.958;2024-03-29T07:57:57;95400.59;;;11.34;58.74
9281;BME280;4679;47.966;7.958;2024-03-29T07:59:58;95404.81;;;11.35;58.97
9281;BME280;4679;47.966;7.958;2024-03-29T08:01:59;95410.13;;;11.35;58.43
9281;BME280;4679;47.966;7.958;2024-03-29T08:04:02;95404.81;;;11.35;58.43
9281;BME280;4679;47.966;7.958;2024-03-29T08:06:04;95382.00;;;11.34;58.54
9281;BME280;4679;47.966;7.958;2024-03-29T08:08:05;95388.09;;;11.35;59.00
9281;BME280;4679;47.966;7.958;2024-03-29T08:10:09;95405.59;;;11.36;59.18
9281;BME280;4679;47.966;7.958;2024-03-29T08:12:11;95409.56;;;11.38;59.98
9281;BME280;4679;47.966;7.958;2024-03-29T08:14:12;95421.75;;;11.39;59.80
9281;BME280;4679;47.966;7.958;2024-03-29T08:16:14;95425.19;;;11.40;59.65
9281;BME280;4679;47.966;7.958;2024-03-29T08:18:17;95418.09;;;11.35;60.50
9281;BME280;4679;47.966;7.958;2024-03-29T08:20:19;95425.06;;;11.31;61.44
9281;BME280;4679;47.966;7.958;2024-03-29T08:22:21;95429.00;;;11.34;60.75
9281;BME280;4679;47.966;7.958;2024-03-29T08:24:22;95423.69;;;11.34;61.10
9281;BME280;4679;47.966;7.958;2024-03-29T08:26:25;95424.19;;;11.36;61.70
9281;BME280;4679;47.966;7.958;2024-03-29T08:28:29;95406.13;;;11.38;61.09
9281;BME280;4679;47.966;7.958;2024-03-29T08:30:29;95399.22;;;11.37;61.88
9281;BME280;4679;47.966;7.958;2024-03-29T08:32:35;95397.16;;;11.34;62.29
9281;BME280;4679;47.966;7.958;2024-03-29T08:34:36;95387.31;;;11.34;62.26
9281;BME280;4679;47.966;7.958;2024-03-29T08:36:38;95375.09;;;11.33;62.73
9281;BME280;4679;47.966;7.958;2024-03-29T08:38:39;95369.00;;;11.33;61.96
9281;BME280;4679;47.966;7.958;2024-03-29T08:40:43;95357.31;;;11.34;62.16
9281;BME280;4679;47.966;7.958;2024-03-29T08:42:45;95365.00;;;11.35;62.12
9281;BME280;4679;47.966;7.958;2024-03-29T08:44:47;95364.13;;;11.40;62.20
9281;BME280;4679;47.966;7.958;2024-03-29T08:46:48;95351.84;;;11.44;63.17
9281;BME280;4679;47.966;7.958;2024-03-29T08:48:50;95354.09;;;11.50;62.89
9281;BME280;4679;47.966;7.958;2024-03-29T08:50:51;95371.75;;;11.60;63.14
9281;BME280;4679;47.966;7.958;2024-03-29T08:52:53;95386.22;;;11.68;62.50
9281;BME280;4679;47.966;7.958;2024-03-29T08:54:55;95383.19;;;11.74;62.50
9281;BME280;4679;47.966;7.958;2024-03-29T08:56:55;95382.59;;;11.77;63.75
9281;BME280;4679;47.966;7.958;2024-03-29T08:58:58;95382.31;;;11.79;62.96
9281;BME280;4679;47.966;7.958;2024-03-29T09:01:04;95402.22;;;11.81;63.89
9281;BME280;4679;47.966;7.958;2024-03-29T09:03:05;95401.34;;;11.86;63.23
9281;BME280;4679;47.966;7.958;2024-03-29T09:05:07;95403.13;;;11.90;64.01
9281;BME280;4679;47.966;7.958;2024-03-29T09:07:09;95406.75;;;11.94;63.79
9281;BME280;4679;47.966;7.958;2024-03-29T09:09:09;95404.00;;;12.00;63.51
9281;BME280;4679;47.966;7.958;2024-03-29T09:11:11;95395.66;;;12.06;64.04
9281;BME280;4679;47.966;7.958;2024-03-29T09:13:13;95408.34;;;12.09;63.41
9281;BME280;4679;47.966;7.958;2024-03-29T09:15:16;95418.97;;;12.09;64.04
9281;BME280;4679;47.966;7.958;2024-03-29T09:17:19;95409.03;;;12.15;63.88
9281;BME280;4679;47.966;7.958;2024-03-29T09:19:22;95411.91;;;12.18;63.58
9281;BME280;4679;47.966;7.958;2024-03-29T09:21:24;95408.34;;;12.23;63.50
9281;BME280;4679;47.966;7.958;2024-03-29T09:23:25;95414.66;;;12.27;63.43
9281;BME280;4679;47.966;7.958;2024-03-29T09:25:28;95414.84;;;12.30;63.44
9281;BME280;4679;47.966;7.958;2024-03-29T09:27:30;95415.22;;;12.38;63.72
9281;BME280;4679;47.966;7.958;2024-03-29T09:29:33;95418.28;;;12.45;63.88
9281;BME280;4679;47.966;7.958;2024-03-29T09:31:36;95414.16;;;12.52;63.80
9281;BME280;4679;47.966;7.958;2024-03-29T09:33:38;95411.09;;;12.59;63.46
9281;BME280;4679;47.966;7.958;2024-03-29T09:35:39;95400.03;;;12.65;63.12
9281;BME280;4679;47.966;7.958;2024-03-29T09:37:41;95407.81;;;12.76;63.54
9281;BME280;4679;47.966;7.958;2024-03-29T09:39:43;95408.06;;;12.88;62.87
9281;BME280;4679;47.966;7.958;2024-03-29T09:41:45;95408.75;;;12.93;63.33
9281;BME280;4679;47.966;7.958;2024-03-29T09:43:47;95411.59;;;12.97;63.24
9281;BME280;4679;47.966;7.958;2024-03-29T09:45:49;95416.19;;;13.05;62.99
9281;BME280;4679;47.966;7.958;2024-03-29T09:47:52;95394.00;;;13.10;62.94
9281;BME280;4679;47.966;7.958;2024-03-29T09:49:56;95393.09;;;13.14;62.92
9281;BME280;4679;47.966;7.958;2024-03-29T09:52:00;95380.00;;;13.18;63.11
9281;BME280;4679;47.966;7.958;2024-03-29T09:54:02;95368.13;;;13.24;63.09
9281;BME280;4679;47.966;7.958;2024-03-29T09:56:06;95372.06;;;13.26;62.87
9281;BME280;4679;47.966;7.958;2024-03-29T09:58:08;95378.84;;;13.32;62.85
9281;BME280;4679;47.966;7.958;2024-03-29T10:00:09;95377.38;;;13.49;62.55
9281;BME280;4679;47.966;7.958;2024-03-29T10:02:14;95373.19;;;13.56;62.45
9281;BME280;4679;47.966;7.958;2024-03-29T10:04:17;95373.84;;;13.62;62.29
9281;BME280;4679;47.966;7.958;2024-03-29T10:06:24;95364.50;;;13.73;62.13
9281;BME280;4679;47.966;7.958;2024-03-29T10:08:26;95369.09;;;13.81;61.94
9281;BME280;4679;47.966;7.958;2024-03-29T10:10:30;95363.81;;;13.90;61.44
9281;BME280;4679;47.966;7.958;2024-03-29T10:12:32;95363.34;;;13.96;61.69
9281;BME280;4679;47.966;7.958;2024-03-29T10:14:43;95349.72;;;14.06;61.35
9281;BME280;4679;47.966;7.958;2024-03-29T10:16:50;95353.53;;;14.14;61.08
9281;BME280;4679;47.966;7.958;2024-03-29T10:18:52;95357.31;;;14.22;60.71
9281;BME280;4679;47.966;7.958;2024-03-29T10:21:01;95348.06;;;14.28;60.91
9281;BME280;4679;47.966;7.958;2024-03-29T10:23:04;95341.81;;;14.32;60.69
9281;BME280;4679;47.966;7.958;2024-03-29T10:25:06;95343.13;;;14.43;60.80
9281;BME280;4679;47.966;7.958;2024-03-29T10:27:07;95336.06;;;14.56;60.58
9281;BME280;4679;47.966;7.958;2024-03-29T10:29:09;95337.81;;;14.61;59.88
9281;BME280;4679;47.966;7.958;2024-03-29T10:31:11;95330.75;;;14.65;60.37
9281;BME280;4679;47.966;7.958;2024-03-29T10:33:15;95334.03;;;14.70;59.55
9281;BME280;4679;47.966;7.958;2024-03-29T10:35:16;95338.44;;;14.75;59.46
9281;BME280;4679;47.966;7.958;2024-03-29T10:37:19;95343.47;;;14.76;59.92
9281;BME280;4679;47.966;7.958;2024-03-29T10:39:25;95326.50;;;14.90;59.32
9281;BME280;4679;47.966;7.958;2024-03-29T10:41:27;95334.84;;;14.97;59.35
9281;BME280;4679;47.966;7.958;2024-03-29T10:43:29;95327.75;;;15.01;59.03
9281;BME280;4679;47.966;7.958;2024-03-29T10:45:31;95335.00;;;15.00;58.87
9281;BME280;4679;47.966;7.958;2024-03-29T10:47:33;95329.50;;;15.05;58.63
9281;BME280;4679;47.966;7.958;2024-03-29T10:49:36;95339.25;;;15.10;58.68
9281;BME280;4679;47.966;7.958;2024-03-29T10:51:38;95340.16;;;15.14;58.43
9281;BME280;4679;47.966;7.958;2024-03-29T10:53:43;95340.63;;;15.16;58.05
9281;BME280;4679;47.966;7.958;2024-03-29T10:55:45;95346.94;;;15.20;58.13
9281;BME280;4679;47.966;7.958;2024-03-29T10:57:49;95347.56;;;15.26;58.17
9281;BME280;4679;47.966;7.958;2024-03-29T11:00:02;95334.97;;;15.35;57.73
9281;BME280;4679;47.966;7.958;2024-03-29T11:02:12;95344.19;;;15.46;57.39
9281;BME280;4679;47.966;7.958;2024-03-29T11:04:19;95337.78;;;15.56;57.46
9281;BME280;4679;47.966;7.958;2024-03-29T11:06:26;95329.41;;;15.48;57.46
9281;BME280;4679;47.966;7.958;2024-03-29T11:08:32;95325.81;;;15.44;57.24
9281;BME280;4679;47.966;7.958;2024-03-29T11:10:39;95333.19;;;15.47;57.18
9281;BME280;4679;47.966;7.958;2024-03-29T11:12:50;95323.75;;;15.50;56.78
9281;BME280;4679;47.966;7.958;2024-03-29T11:15:01;95315.47;;;15.34;57.07
9281;BME280;4679;47.966;7.958;2024-03-29T11:17:05;95317.97;;;15.31;56.35
9281;BME280;4679;47.966;7.958;2024-03-29T11:19:07;95331.34;;;15.39;56.91
9281;BME280;4679;47.966;7.958;2024-03-29T11:21:10;95342.94;;;15.52;56.28
9281;BME280;4679;47.966;7.958;2024-03-29T11:23:14;95349.84;;;15.62;56.38
9281;BME280;4679;47.966;7.958;2024-03-29T11:25:15;95335.38;;;15.71;55.97
9281;BME280;4679;47.966;7.958;2024-03-29T11:27:22;95351.09;;;15.73;56.22
9281;BME280;4679;47.966;7.958;2024-03-29T11:29:24;95343.09;;;15.73;55.91
9281;BME280;4679;47.966;7.958;2024-03-29T11:31:29;95350.13;;;15.77;55.79
9281;BME280;4679;47.966;7.958;2024-03-29T11:33:34;95343.88;;;16.11;55.04
9281;BME280;4679;47.966;7.958;2024-03-29T11:35:39;95325.22;;;16.24;55.29
9281;BME280;4679;47.966;7.958;2024-03-29T11:37:40;95325.13;;;16.11;55.59
9281;BME280;4679;47.966;7.958;2024-03-29T11:39:46;95315.91;;;16.00;55.28
9281;BME280;4679;47.966;7.958;2024-03-29T11:41:50;95312.72;;;16.07;55.27
9281;BME280;4679;47.966;7.958;2024-03-29T11:43:54;95321.22;;;16.09;55.81
9281;BME280;4679;47.966;7.958;2024-03-29T11:45:58;95311.13;;;16.14;55.38
9281;BME280;4679;47.966;7.958;2024-03-29T11:48:03;95308.91;;;16.16;55.00
9281;BME280;4679;47.966;7.958;2024-03-29T11:50:08;95298.44;;;16.32;54.89
9281;BME280;4679;47.966;7.958;2024-03-29T11:52:09;95292.97;;;16.49;54.69
9281;BME280;4679;47.966;7.958;2024-03-29T11:54:11;95293.44;;;16.72;54.42
9281;BME280;4679;47.966;7.958;2024-03-29T11:56:13;95292.75;;;17.17;53.83
9281;BME280;4679;47.966;7.958;2024-03-29T11:58:14;95289.25;;;17.49;53.42
9281;BME280;4679;47.966;7.958;2024-03-29T12:00:18;95285.63;;;17.66;53.10
9281;BME280;4679;47.966;7.958;2024-03-29T12:02:19;95283.75;;;17.79;52.80
9281;BME280;4679;47.966;7.958;2024-03-29T12:04:21;95293.25;;;17.88;52.51
9281;BME280;4679;47.966;7.958;2024-03-29T12:06:22;95301.97;;;17.85;52.73
9281;BME280;4679;47.966;7.958;2024-03-29T12:08:24;95292.91;;;17.66;53.12
9281;BME280;4679;47.966;7.958;2024-03-29T12:10:26;95299.19;;;17.82;52.94
9281;BME280;4679;47.966;7.958;2024-03-29T12:12:28;95300.09;;;17.98;52.74
9281;BME280;4679;47.966;7.958;2024-03-29T12:14:35;95310.16;;;18.13;52.54
9281;BME280;4679;47.966;7.958;2024-03-29T12:16:43;95314.41;;;18.26;52.30
9281;BME280;4679;47.966;7.958;2024-03-29T12:18:47;95305.44;;;18.22;52.27
9281;BME280;4679;47.966;7.958;2024-03-29T12:20:49;95307.44;;;18.38;52.09
9281;BME280;4679;47.966;7.958;2024-03-29T12:22:50;95310.34;;;18.45;52.00
9281;BME280;4679;47.966;7.958;2024-03-29T12:24:51;95295.13;;;18.61;51.74
9281;BME280;4679;47.966;7.958;2024-03-29T12:26:53;95284.59;;;18.56;51.71
9281;BME280;4679;47.966;7.958;2024-03-29T12:28:54;95299.84;;;18.27;52.00
9281;BME280;4679;47.966;7.958;2024-03-29T12:30:56;95303.66;;;18.26;52.00
9281;BME280;4679;47.966;7.958;2024-03-29T12:33:03;95300.50;;;18.37;51.60
9281;BME280;4679;47.966;7.958;2024-03-29T12:35:08;95304.44;;;18.27;51.77
9281;BME280;4679;47.966;7.958;2024-03-29T12:37:10;95313.38;;;18.43;51.51
9281;BME280;4679;47.966;7.958;2024-03-29T12:39:12;95312.91;;;18.66;51.19
9281;BME280;4679;47.966;7.958;2024-03-29T12:41:15;95300.00;;;18.83;51.02
9281;BME280;4679;47.966;7.958;2024-03-29T12:43:19;95312.09;;;18.89;50.83
9281;BME280;4679;47.966;7.958;2024-03-29T12:45:22;95312.38;;;19.00;50.75
9281;BME280;4679;47.966;7.958;2024-03-29T12:47:23;95314.63;;;18.98;50.75
9281;BME280;4679;47.966;7.958;2024-03-29T12:49:26;95316.81;;;18.68;50.91
9281;BME280;4679;47.966;7.958;2024-03-29T12:51:28;95319.19;;;18.70;50.92
9281;BME280;4679;47.966;7.958;2024-03-29T12:53:30;95309.13;;;18.94;50.47
9281;BME280;4679;47.966;7.958;2024-03-29T12:55:34;95309.84;;;19.19;50.16
9281;BME280;4679;47.966;7.958;2024-03-29T12:57:37;95308.66;;;19.05;50.24
9281;BME280;4679;47.966;7.958;2024-03-29T12:59:41;95304.38;;;19.16;50.19
9281;BME280;4679;47.966;7.958;2024-03-29T13:01:43;95299.97;;;19.23;49.89
9281;BME280;4679;47.966;7.958;2024-03-29T13:03:45;95310.28;;;19.21;50.13
9281;BME280;4679;47.966;7.958;2024-03-29T13:05:48;95309.84;;;19.19;50.16
9281;BME280;4679;47.966;7.958;2024-03-29T13:07:50;95307.09;;;19.31;50.12
9281;BME280;4679;47.966;7.958;2024-03-29T13:09:51;95312.41;;;19.44;49.94
9281;BME280;4679;47.966;7.958;2024-03-29T13:11:53;95305.97;;;19.60;49.68
9281;BME280;4679;47.966;7.958;2024-03-29T13:13:54;95308.75;;;19.64;49.63
9281;BME280;4679;47.966;7.958;2024-03-29T13:15:56;95308.06;;;19.67;49.69
9281;BME280;4679;47.966;7.958;2024-03-29T13:17:57;95317.16;;;19.62;49.69
9281;BME280;4679;47.966;7.958;2024-03-29T13:20:00;95306.81;;;19.21;50.50
9281;BME280;4679;47.966;7.958;2024-03-29T13:22:02;95321.88;;;19.38;50.38
9281;BME280;4679;47.966;7.958;2024-03-29T13:24:06;95312.56;;;19.63;49.94
9281;BME280;4679;47.966;7.958;2024-03-29T13:26:08;95311.47;;;19.80;49.39
9281;BME280;4679;47.966;7.958;2024-03-29T13:28:09;95302.06;;;19.74;49.79
9281;BME280;4679;47.966;7.958;2024-03-29T13:30:12;95301.53;;;19.52;50.02
9281;BME280;4679;47.966;7.958;2024-03-29T13:32:14;95300.09;;;19.71;49.81
9281;BME280;4679;47.966;7.958;2024-03-29T13:34:15;95305.53;;;19.90;49.20
9281;BME280;4679;47.966;7.958;2024-03-29T13:36:18;95303.81;;;19.82;49.48
9281;BME280;4679;47.966;7.958;2024-03-29T13:38:20;95301.47;;;19.96;49.06
9281;BME280;4679;47.966;7.958;2024-03-29T13:40:24;95297.75;;;19.85;49.32
9281;BME280;4679;47.966;7.958;2024-03-29T13:42:25;95290.34;;;20.13;49.13
9281;BME280;4679;47.966;7.958;2024-03-29T13:44:27;95296.56;;;20.49;48.27
9281;BME280;4679;47.966;7.958;2024-03-29T13:46:29;95293.88;;;20.49;48.42
9281;BME280;4679;47.966;7.958;2024-03-29T13:48:29;95293.47;;;20.66;48.33
9281;BME280;4679;47.966;7.958;2024-03-29T13:50:31;95276.47;;;20.81;48.04
9281;BME280;4679;47.966;7.958;2024-03-29T13:52:31;95269.69;;;21.06;47.81
9281;BME280;4679;47.966;7.958;2024-03-29T13:54:35;95272.69;;;21.21;47.58
9281;BME280;4679;47.966;7.958;2024-03-29T13:56:36;95277.31;;;20.85;48.23
9281;BME280;4679;47.966;7.958;2024-03-29T13:58:38;95267.53;;;20.58;48.41
9281;BME280;4679;47.966;7.958;2024-03-29T14:00:39;95282.34;;;20.67;48.18
9281;BME280;4679;47.966;7.958;2024-03-29T14:02:42;95277.38;;;20.69;47.94
9281;BME280;4679;47.966;7.958;2024-03-29T14:04:44;95276.31;;;20.93;47.85
9281;BME280;4679;47.966;7.958;2024-03-29T14:06:45;95277.47;;;21.12;47.62
9281;BME280;4679;47.966;7.958;2024-03-29T14:08:46;95273.03;;;21.19;47.99
9281;BME280;4679;47.966;7.958;2024-03-29T14:10:49;95274.38;;;20.90;48.11
9281;BME280;4679;47.966;7.958;2024-03-29T14:12:53;95274.75;;;20.54;48.63
9281;BME280;4679;47.966;7.958;2024-03-29T14:14:55;95264.44;;;20.24;49.16
9281;BME280;4679;47.966;7.958;2024-03-29T14:16:57;95266.47;;;20.12;49.06
9281;BME280;4679;47.966;7.958;2024-03-29T14:18:58;95277.94;;;20.09;49.38
9281;BME280;4679;47.966;7.958;2024-03-29T14:21:00;95266.59;;;20.19;49.15
9281;BME280;4679;47.966;7.958;2024-03-29T14:23:01;95273.22;;;20.21;49.13
9281;BME280;4679;47.966;7.958;2024-03-29T14:25:07;95276.44;;;20.11;49.19
9281;BME280;4679;47.966;7.958;2024-03-29T14:27:12;95281.50;;;20.13;49.33
9281;BME280;4679;47.966;7.958;2024-03-29T14:29:14;95268.59;;;20.22;49.23
9281;BME280;4679;47.966;7.958;2024-03-29T14:31:18;95281.19;;;20.33;49.05
9281;BME280;4679;47.966;7.958;2024-03-29T14:33:19;95277.31;;;20.31;48.94
9281;BME280;4679;47.966;7.958;2024-03-29T14:35:21;95275.31;;;20.28;49.06
9281;BME280;4679;47.966;7.958;2024-03-29T14:37:22;95279.13;;;20.43;48.80
9281;BME280;4679;47.966;7.958;2024-03-29T14:39:24;95269.34;;;20.54;48.38
9281;BME280;4679;47.966;7.958;2024-03-29T14:41:26;95259.13;;;20.44;48.72
9281;BME280;4679;47.966;7.958;2024-03-29T14:43:29;95267.81;;;20.37;48.82
9281;BME280;4679;47.966;7.958;2024-03-29T14:45:30;95261.97;;;20.35;48.82
9281;BME280;4679;47.966;7.958;2024-03-29T14:47:32;95260.69;;;20.29;48.83
9281;BME280;4679;47.966;7.958;2024-03-29T14:49:34;95270.19;;;20.07;49.29
9281;BME280;4679;47.966;7.958;2024-03-29T14:51:34;95257.06;;;20.21;48.77
9281;BME280;4679;47.966;7.958;2024-03-29T14:53:36;95258.28;;;20.24;48.77
9281;BME280;4679;47.966;7.958;2024-03-29T14:55:38;95253.47;;;20.33;48.63
9281;BME280;4679;47.966;7.958;2024-03-29T14:57:40;95253.47;;;20.33;48.66
9281;BME280;4679;47.966;7.958;2024-03-29T14:59:42;95253.66;;;20.24;48.84
9281;BME280;4679;47.966;7.958;2024-03-29T15:01:44;95251.97;;;20.16;49.10
9281;BME280;4679;47.966;7.958;2024-03-29T15:03:45;95253.00;;;19.96;49.20
9281;BME280;4679;47.966;7.958;2024-03-29T15:05:46;95257.88;;;19.90;49.33
9281;BME280;4679;47.966;7.958;2024-03-29T15:07:47;95250.56;;;19.91;49.66
9281;BME280;4679;47.966;7.958;2024-03-29T15:09:49;95246.59;;;20.00;49.45
9281;BME280;4679;47.966;7.958;2024-03-29T15:11:51;95245.88;;;20.03;48.94
9281;BME280;4679;47.966;7.958;2024-03-29T15:13:54;95251.38;;;19.91;49.84
9281;BME280;4679;47.966;7.958;2024-03-29T15:15:56;95243.38;;;19.79;49.66
9281;BME280;4679;47.966;7.958;2024-03-29T15:17:58;95244.59;;;19.82;49.41
9281;BME280;4679;47.966;7.958;2024-03-29T15:19:59;95232.44;;;19.88;49.61
9281;BME280;4679;47.966;7.958;2024-03-29T15:22:05;95229.59;;;19.81;49.66
9281;BME280;4679;47.966;7.958;2024-03-29T15:24:08;95231.25;;;19.70;49.95
9281;BME280;4679;47.966;7.958;2024-03-29T15:26:10;95238.00;;;19.63;50.05
9281;BME280;4679;47.966;7.958;2024-03-29T15:28:11;95238.53;;;19.53;50.29
9281;BME280;4679;47.966;7.958;2024-03-29T15:30:30;95231.38;;;19.45;50.63
9281;BME280;4679;47.966;7.958;2024-03-29T15:32:36;95232.41;;;19.41;50.56
9281;BME280;4679;47.966;7.958;2024-03-29T15:34:37;95228.16;;;19.24;50.77
9281;BME280;4679;47.966;7.958;2024-03-29T15:36:39;95226.56;;;19.07;51.00
9281;BME280;4679;47.966;7.958;2024-03-29T15:38:40;95222.44;;;18.97;50.89
9281;BME280;4679;47.966;7.958;2024-03-29T15:40:41;95224.31;;;18.81;51.44
9281;BME280;4679;47.966;7.958;2024-03-29T15:42:42;95225.28;;;18.89;51.28
9281;BME280;4679;47.966;7.958;2024-03-29T15:44:43;95221.38;;;18.86;51.55
9281;BME280;4679;47.966;7.958;2024-03-29T15:46:45;95230.38;;;18.78;51.51
9281;BME280;4679;47.966;7.958;2024-03-29T15:48:49;95224.47;;;18.73;51.52
9281;BME280;4679;47.966;7.958;2024-03-29T15:50:50;95217.63;;;18.75;51.73
9281;BME280;4679;47.966;7.958;2024-03-29T15:52:51;95218.97;;;18.69;51.71
9281;BME280;4679;47.966;7.958;2024-03-29T15:54:52;95217.09;;;18.57;51.73
9281;BME280;4679;47.966;7.958;2024-03-29T15:56:54;95215.56;;;18.44;52.13
9281;BME280;4679;47.966;7.958;2024-03-29T15:58:55;95215.34;;;18.37;52.34
9281;BME280;4679;47.966;7.958;2024-03-29T16:00:57;95209.97;;;18.37;52.40
9281;BME280;4679;47.966;7.958;2024-03-29T16:02:58;95213.78;;;18.36;52.33
9281;BME280;4679;47.966;7.958;2024-03-29T16:05:01;95223.56;;;18.28;52.61
9281;BME280;4679;47.966;7.958;2024-03-29T16:07:03;95224.09;;;18.22;52.69
9281;BME280;4679;47.966;7.958;2024-03-29T16:09:04;95226.34;;;18.20;52.75
9281;BME280;4679;47.966;7.958;2024-03-29T16:11:06;95224.00;;;18.18;52.87
9281;BME280;4679;47.966;7.958;2024-03-29T16:13:07;95218.63;;;18.18;52.75
9281;BME280;4679;47.966;7.958;2024-03-29T16:15:09;95215.53;;;18.16;52.74
9281;BME280;4679;47.966;7.958;2024-03-29T16:17:11;95209.25;;;18.12;53.10
9281;BME280;4679;47.966;7.958;2024-03-29T16:19:12;95206.81;;;18.07;53.07
9281;BME280;4679;47.966;7.958;2024-03-29T16:21:14;95204.00;;;18.04;53.34
9281;BME280;4679;47.966;7.958;2024-03-29T16:23:16;95205.13;;;17.90;53.61
9281;BME280;4679;47.966;7.958;2024-03-29T16:25:16;95213.84;;;17.87;53.85
9281;BME280;4679;47.966;7.958;2024-03-29T16:27:18;95222.16;;;17.82;53.78
9281;BME280;4679;47.966;7.958;2024-03-29T16:29:19;95219.81;;;17.81;53.71
9281;BME280;4679;47.966;7.958;2024-03-29T16:31:20;95212.09;;;17.79;53.54
9281;BME280;4679;47.966;7.958;2024-03-29T16:33:21;95208.16;;;17.77;53.64
9281;BME280;4679;47.966;7.958;2024-03-29T16:35:22;95209.75;;;17.66;53.96
9281;BME280;4679;47.966;7.958;2024-03-29T16:37:24;95205.34;;;17.61;53.49
9281;BME280;4679;47.966;7.958;2024-03-29T16:39:26;95210.16;;;17.55;53.96
9281;BME280;4679;47.966;7.958;2024-03-29T16:41:26;95204.22;;;17.50;53.53
9281;BME280;4679;47.966;7.958;2024-03-29T16:43:28;95201.41;;;17.46;53.95
9281;BME280;4679;47.966;7.958;2024-03-29T16:45:29;95205.56;;;17.44;53.68
9281;BME280;4679;47.966;7.958;2024-03-29T16:47:30;95205.78;;;17.39;53.51
9281;BME280;4679;47.966;7.958;2024-03-29T16:49:31;95209.78;;;17.33;54.17
9281;BME280;4679;47.966;7.958;2024-03-29T16:51:32;95207.69;;;17.26;54.10
9281;BME280;4679;47.966;7.958;2024-03-29T16:53:34;95208.34;;;17.23;54.26
9281;BME280;4679;47.966;7.958;2024-03-29T16:55:36;95206.50;;;17.15;54.31
9281;BME280;4679;47.966;7.958;2024-03-29T16:57:39;95207.41;;;17.07;54.81
9281;BME280;4679;47.966;7.958;2024-03-29T16:59:41;95207.16;;;17.00;54.48
9281;BME280;4679;47.966;7.958;2024-03-29T17:01:41;95207.81;;;16.97;54.74
9281;BME280;4679;47.966;7.958;2024-03-29T17:03:43;95200.44;;;16.94;54.64
9281;BME280;4679;47.966;7.958;2024-03-29T17:05:43;95206.47;;;16.91;55.08
9281;BME280;4679;47.966;7.958;2024-03-29T17:07:45;95206.19;;;16.83;55.00
9281;BME280;4679;47.966;7.958;2024-03-29T17:09:47;95196.81;;;16.77;55.02
9281;BME280;4679;47.966;7.958;2024-03-29T17:11:48;95206.03;;;16.68;55.23
9281;BME280;4679;47.966;7.958;2024-03-29T17:13:49;95204.66;;;16.62;55.85
9281;BME280;4679;47.966;7.958;2024-03-29T17:15:51;95205.63;;;16.57;55.83
9281;BME280;4679;47.966;7.958;2024-03-29T17:17:53;95210.28;;;16.48;56.13
9281;BME280;4679;47.966;7.958;2024-03-29T17:19:54;95203.56;;;16.42;56.24
9281;BME280;4679;47.966;7.958;2024-03-29T17:21:55;95205.06;;;16.31;56.38
9281;BME280;4679;47.966;7.958;2024-03-29T17:23:56;95205.25;;;16.26;56.94
9281;BME280;4679;47.966;7.958;2024-03-29T17:25:58;95204.34;;;16.22;57.34
9281;BME280;4679;47.966;7.958;2024-03-29T17:27:59;95199.84;;;16.13;57.43
9281;BME280;4679;47.966;7.958;2024-03-29T17:30:00;95206.63;;;16.11;57.37
9281;BME280;4679;47.966;7.958;2024-03-29T17:32:02;95210.72;;;16.08;57.71
9281;BME280;4679;47.966;7.958;2024-03-29T17:34:03;95211.38;;;16.05;57.56
9281;BME280;4679;47.966;7.958;2024-03-29T17:36:04;95217.06;;;16.04;58.31
9281;BME280;4679;47.966;7.958;2024-03-29T17:38:06;95208.63;;;15.93;58.02
9281;BME280;4679;47.966;7.958;2024-03-29T17:40:08;95212.47;;;15.83;58.81
9281;BME280;4679;47.966;7.958;2024-03-29T17:42:11;95204.28;;;15.80;59.24
9281;BME280;4679;47.966;7.958;2024-03-29T17:44:12;95205.00;;;15.68;58.94
9281;BME280;4679;47.966;7.958;2024-03-29T17:46:14;95216.06;;;15.58;60.08
9281;BME280;4679;47.966;7.958;2024-03-29T17:48:14;95211.16;;;15.52;60.29
9281;BME280;4679;47.966;7.958;2024-03-29T17:50:16;95218.25;;;15.47;60.13
9281;BME280;4679;47.966;7.958;2024-03-29T17:52:16;95220.78;;;15.44;60.50
9281;BME280;4679;47.966;7.958;2024-03-29T17:54:18;95215.66;;;15.30;61.02
9281;BME280;4679;47.966;7.958;2024-03-29T17:56:19;95230.16;;;15.21;60.76
9281;BME280;4679;47.966;7.958;2024-03-29T17:58:22;95219.81;;;15.10;61.42
9281;BME280;4679;47.966;7.958;2024-03-29T18:00:22;95222.81;;;15.00;61.39
9281;BME280;4679;47.966;7.958;2024-03-29T18:02:23;95222.84;;;14.92;62.17
9281;BME280;4679;47.966;7.958;2024-03-29T18:04:24;95219.38;;;14.83;62.06
9281;BME280;4679;47.966;7.958;2024-03-29T18:06:25;95240.28;;;14.72;62.70
9281;BME280;4679;47.966;7.958;2024-03-29T18:08:27;95238.75;;;14.62;63.09
9281;BME280;4679;47.966;7.958;2024-03-29T18:10:27;95234.50;;;14.61;62.82
9281;BME280;4679;47.966;7.958;2024-03-29T18:12:29;95231.34;;;14.59;63.03
9281;BME280;4679;47.966;7.958;2024-03-29T18:14:31;95233.56;;;14.49;63.29
9281;BME280;4679;47.966;7.958;2024-03-29T18:16:32;95234.50;;;14.44;63.73
9281;BME280;4679;47.966;7.958;2024-03-29T18:18:33;95238.69;;;14.36;63.84
9281;BME280;4679;47.966;7.958;2024-03-29T18:20:34;95232.56;;;14.27;64.26
9281;BME280;4679;47.966;7.958;2024-03-29T18:22:35;95235.88;;;14.24;63.83
9281;BME280;4679;47.966;7.958;2024-03-29T18:24:36;95243.56;;;14.17;64.18
9281;BME280;4679;47.966;7.958;2024-03-29T18:26:37;95241.81;;;14.04;64.35
9281;BME280;4679;47.966;7.958;2024-03-29T18:28:39;95241.16;;;13.98;64.64
9281;BME280;4679;47.966;7.958;2024-03-29T18:30:41;95243.50;;;13.91;65.11
9281;BME280;4679;47.966;7.958;2024-03-29T18:32:42;95244.13;;;13.88;65.08
9281;BME280;4679;47.966;7.958;2024-03-29T18:34:43;95243.78;;;13.81;65.20
9281;BME280;4679;47.966;7.958;2024-03-29T18:36:45;95238.94;;;13.75;65.22
9281;BME280;4679;47.966;7.958;2024-03-29T18:38:47;95237.44;;;13.60;65.72
9281;BME280;4679;47.966;7.958;2024-03-29T18:40:48;95244.31;;;13.52;66.04
9281;BME280;4679;47.966;7.958;2024-03-29T18:42:50;95244.75;;;13.46;66.19
9281;BME280;4679;47.966;7.958;2024-03-29T18:44:52;95254.00;;;13.40;66.18
9281;BME280;4679;47.966;7.958;2024-03-29T18:46:54;95257.38;;;13.31;66.70
9281;BME280;4679;47.966;7.958;2024-03-29T18:48:55;95250.16;;;13.23;66.54
9281;BME280;4679;47.966;7.958;2024-03-29T18:50:58;95241.50;;;13.18;67.19
9281;BME280;4679;47.966;7.958;2024-03-29T18:53:00;95247.13;;;13.16;66.91
9281;BME280;4679;47.966;7.958;2024-03-29T18:55:00;95246.28;;;13.07;67.51
9281;BME280;4679;47.966;7.958;2024-03-29T18:57:02;95245.91;;;13.00;67.50
9281;BME280;4679;47.966;7.958;2024-03-29T18:59:04;95243.09;;;12.96;67.60